createdAt,value
2022-12-03T00:00:20.794Z,79.35
2022-12-03T00:01:22.646Z,79.59
2022-12-03T00:02:25.398Z,79.54
2022-12-03T00:03:27.817Z,79.45
2022-12-03T00:04:29.809Z,79.67
2022-12-03T00:05:31.717Z,79.60
2022-12-03T00:06:34.821Z,78.94
2022-12-03T00:07:37.071Z,79.19
2022-12-03T00:08:38.918Z,79.69
2022-12-03T00:09:40.793Z,79.13
2022-12-03T00:10:42.677Z,78.97
2022-12-03T00:11:44.540Z,78.90
2022-12-03T00:12:47.286Z,79.35
2022-12-03T00:13:49.124Z,79.12
2022-12-03T00:14:52.321Z,79.04
2022-12-03T00:15:54.223Z,78.86
2022-12-03T00:16:56.089Z,79.39
2022-12-03T00:17:57.912Z,79.25
2022-12-03T00:18:59.801Z,78.96
2022-12-03T00:20:02.133Z,78.22
2022-12-03T00:21:03.993Z,78.61
2022-12-03T00:22:05.826Z,78.59
2022-12-03T00:23:07.614Z,78.84
2022-12-03T00:24:09.661Z,78.49
2022-12-03T00:25:11.505Z,78.19
2022-12-03T00:26:13.442Z,78.58
2022-12-03T00:27:15.255Z,78.02
2022-12-03T00:28:17.120Z,78.43
2022-12-03T00:29:18.997Z,79.10
2022-12-03T00:30:20.826Z,78.87
2022-12-03T00:31:23.860Z,79.11
2022-12-03T00:32:25.881Z,79.24
2022-12-03T00:33:27.745Z,77.91
2022-12-03T00:34:29.616Z,78.20
2022-12-03T00:35:31.435Z,78.42
2022-12-03T00:36:33.272Z,78.74
2022-12-03T00:37:35.743Z,78.63
2022-12-03T00:38:37.611Z,78.29
2022-12-03T00:39:39.481Z,78.16
2022-12-03T00:40:41.575Z,78.56
2022-12-03T00:41:43.407Z,78.36
2022-12-03T00:42:45.256Z,78.45
2022-12-03T00:43:47.071Z,78.66
2022-12-03T00:44:50.435Z,78.25
2022-12-03T00:45:52.726Z,78.70
2022-12-03T00:46:54.616Z,78.81
2022-12-03T00:47:56.515Z,78.80
2022-12-03T00:48:58.367Z,78.27
2022-12-03T00:50:00.220Z,78.80
2022-12-03T00:51:02.132Z,78.77
2022-12-03T00:52:04.151Z,78.39
2022-12-03T00:53:05.969Z,78.61
2022-12-03T00:54:07.818Z,78.26
2022-12-03T00:55:09.909Z,78.02
2022-12-03T00:56:11.822Z,78.22
2022-12-03T00:57:13.731Z,78.34
2022-12-03T00:58:15.539Z,78.04
2022-12-03T00:59:17.378Z,78.01
2022-12-03T01:00:19.431Z,78.46
2022-12-03T01:01:21.309Z,77.95
2022-12-03T01:02:24.074Z,78.47
2022-12-03T01:03:26.179Z,78.32
2022-12-03T01:04:28.069Z,78.41
2022-12-03T01:05:29.909Z,78.71
2022-12-03T01:06:31.796Z,78.84
2022-12-03T01:07:33.646Z,77.91
2022-12-03T01:08:35.542Z,78.52
2022-12-03T01:09:37.499Z,78.38
2022-12-03T01:10:39.420Z,78.19
2022-12-03T01:11:41.693Z,78.25
2022-12-03T01:12:43.518Z,78.69
2022-12-03T01:13:45.419Z,78.41
2022-12-03T01:14:47.328Z,78.24
2022-12-03T01:15:49.395Z,78.10
2022-12-03T01:16:51.367Z,78.08
2022-12-03T01:17:54.554Z,78.81
2022-12-03T01:18:56.414Z,78.75
2022-12-03T01:19:59.336Z,78.93
2022-12-03T01:21:01.196Z,78.16
2022-12-03T01:22:03.329Z,78.27
2022-12-03T01:23:05.259Z,78.42
2022-12-03T01:24:07.179Z,78.84
2022-12-03T01:25:09.191Z,78.90
2022-12-03T01:26:11.071Z,79.07
2022-12-03T01:27:12.959Z,78.92
2022-12-03T01:28:14.767Z,78.55
2022-12-03T01:29:16.661Z,79.06
2022-12-03T01:30:18.480Z,79.18
2022-12-03T01:31:40.487Z,79.45
2022-12-03T01:32:42.426Z,79.33
2022-12-03T01:33:44.287Z,79.40
2022-12-03T01:34:47.027Z,79.51
2022-12-03T01:35:48.900Z,79.36
2022-12-03T01:36:52.851Z,78.81
2022-12-03T01:37:54.694Z,78.97
2022-12-03T01:38:56.544Z,78.98
2022-12-03T01:39:58.382Z,79.33
2022-12-03T01:41:00.197Z,78.80
2022-12-03T01:42:02.675Z,78.50
2022-12-03T01:43:04.516Z,78.64
2022-12-03T01:44:13.044Z,78.89
2022-12-03T01:45:22.199Z,78.49
2022-12-03T01:46:25.464Z,78.59
2022-12-03T01:47:32.072Z,78.63
2022-12-03T01:48:35.981Z,78.56
2022-12-03T01:49:46.081Z,78.75
2022-12-03T01:50:47.945Z,78.60
2022-12-03T01:51:52.197Z,79.01
2022-12-03T01:52:55.908Z,78.70
2022-12-03T01:53:58.886Z,78.46
2022-12-03T01:55:02.614Z,78.91
2022-12-03T01:56:04.558Z,78.52
2022-12-03T01:57:15.128Z,79.01
2022-12-03T01:58:17.451Z,79.51
2022-12-03T01:59:20.998Z,79.39
2022-12-03T02:00:24.543Z,79.36
2022-12-03T02:01:26.523Z,79.18
2022-12-03T02:02:31.939Z,79.32
2022-12-03T02:03:33.871Z,78.84
2022-12-03T02:04:36.002Z,78.73
2022-12-03T02:05:38.525Z,79.10
2022-12-03T02:06:41.414Z,78.72
2022-12-03T02:07:43.271Z,78.90
2022-12-03T02:08:45.665Z,79.50
2022-12-03T02:09:47.544Z,79.49
2022-12-03T02:10:49.385Z,79.03
2022-12-03T02:11:51.289Z,79.28
2022-12-03T02:13:13.359Z,79.43
2022-12-03T02:14:18.169Z,79.52
2022-12-03T02:15:20.062Z,79.71
2022-12-03T02:16:22.207Z,79.31
2022-12-03T02:17:24.169Z,79.79
2022-12-03T02:18:26.094Z,79.86
2022-12-03T02:19:30.101Z,79.78
2022-12-03T02:20:38.285Z,79.30
2022-12-03T02:21:51.524Z,79.63
2022-12-03T02:22:59.235Z,79.10
2022-12-03T02:24:16.289Z,79.21
2022-12-03T02:25:32.567Z,78.74
2022-12-03T02:26:34.439Z,79.35
2022-12-03T02:27:36.336Z,79.05
2022-12-03T02:28:39.042Z,79.78
2022-12-03T02:29:40.958Z,79.41
2022-12-03T02:30:42.852Z,79.42
2022-12-03T02:31:45.048Z,79.50
2022-12-03T02:32:47.532Z,79.12
2022-12-03T02:33:49.444Z,79.47
2022-12-03T02:34:52.489Z,79.09
2022-12-03T02:35:56.949Z,79.05
2022-12-03T02:37:02.992Z,78.90
2022-12-03T02:38:14.007Z,78.90
2022-12-03T02:39:15.861Z,79.37
2022-12-03T02:40:23.399Z,78.73
2022-12-03T02:41:43.698Z,78.86
2022-12-03T02:42:46.863Z,79.45
2022-12-03T02:43:48.741Z,79.26
2022-12-03T02:44:50.715Z,78.94
2022-12-03T02:45:55.525Z,78.56
2022-12-03T02:46:58.593Z,78.64
2022-12-03T02:48:12.356Z,78.86
2022-12-03T02:49:14.376Z,78.91
2022-12-03T02:50:20.002Z,78.16
2022-12-03T02:51:21.873Z,78.21
2022-12-03T02:52:23.911Z,78.28
2022-12-03T02:53:28.545Z,78.77
2022-12-03T02:54:30.434Z,79.00
2022-12-03T02:55:36.876Z,78.21
2022-12-03T02:56:39.329Z,78.56
2022-12-03T02:57:41.723Z,78.25
2022-12-03T02:58:45.066Z,78.56
2022-12-03T02:59:47.128Z,78.61
2022-12-03T03:00:49.743Z,78.90
2022-12-03T03:01:51.731Z,78.99
2022-12-03T03:02:53.736Z,78.60
2022-12-03T03:03:56.099Z,78.98
2022-12-03T03:04:58.314Z,78.91
2022-12-03T03:06:02.463Z,78.51
2022-12-03T03:07:04.493Z,78.89
2022-12-03T03:08:08.692Z,78.77
2022-12-03T03:09:10.675Z,78.83
2022-12-03T03:10:14.878Z,78.97
2022-12-03T03:11:16.747Z,79.16
2022-12-03T03:12:18.635Z,79.40
2022-12-03T03:13:21.229Z,78.94
2022-12-03T03:14:23.169Z,79.48
2022-12-03T03:15:25.673Z,79.37
2022-12-03T03:16:27.598Z,78.94
2022-12-03T03:17:29.726Z,78.75
2022-12-03T03:18:32.533Z,79.42
2022-12-03T03:19:34.496Z,78.87
2022-12-03T03:20:37.374Z,79.17
2022-12-03T03:21:39.235Z,79.21
2022-12-03T03:22:41.930Z,78.93
2022-12-03T03:23:43.822Z,78.86
2022-12-03T03:24:47.590Z,78.59
2022-12-03T03:25:56.619Z,79.19
2022-12-03T03:26:58.484Z,79.29
2022-12-03T03:28:00.321Z,79.39
2022-12-03T03:29:03.376Z,78.51
2022-12-03T03:30:06.198Z,79.26
2022-12-03T03:31:09.765Z,78.89
2022-12-03T03:32:11.717Z,79.35
2022-12-03T03:33:14.008Z,78.80
2022-12-03T03:34:16.586Z,79.50
2022-12-03T03:35:18.759Z,78.85
2022-12-03T03:36:20.633Z,79.72
2022-12-03T03:37:22.783Z,78.99
2022-12-03T03:38:24.707Z,79.54
2022-12-03T03:39:26.680Z,79.48
2022-12-03T03:40:28.765Z,79.92
2022-12-03T03:41:30.802Z,79.17
2022-12-03T03:42:32.715Z,79.12
2022-12-03T03:43:35.295Z,79.34
2022-12-03T03:44:37.256Z,79.49
2022-12-03T03:45:40.058Z,80.03
2022-12-03T03:46:42.976Z,79.71
2022-12-03T03:47:45.011Z,79.95
2022-12-03T03:48:48.683Z,80.14
2022-12-03T03:49:51.175Z,79.97
2022-12-03T03:50:53.617Z,79.96
2022-12-03T03:51:56.012Z,79.50
2022-12-03T03:52:58.833Z,79.36
2022-12-03T03:54:01.630Z,79.56
2022-12-03T03:55:05.621Z,80.02
2022-12-03T03:56:07.982Z,79.85
2022-12-03T03:57:09.873Z,79.95
2022-12-03T03:58:11.875Z,79.28
2022-12-03T03:59:14.046Z,79.00
2022-12-03T04:00:16.051Z,79.38
2022-12-03T04:01:18.715Z,79.29
2022-12-03T04:02:21.633Z,78.97
2022-12-03T04:03:23.522Z,78.85
2022-12-03T04:04:27.020Z,79.25
2022-12-03T04:05:29.219Z,79.60
2022-12-03T04:06:31.170Z,79.24
2022-12-03T04:07:33.111Z,79.42
2022-12-03T04:08:35.000Z,79.13
2022-12-03T04:09:36.805Z,79.67
2022-12-03T04:10:57.007Z,78.99
2022-12-03T04:12:17.145Z,79.30
2022-12-03T04:13:18.962Z,78.64
2022-12-03T04:14:20.850Z,78.93
2022-12-03T04:15:23.041Z,78.68
2022-12-03T04:16:24.959Z,78.93
2022-12-03T04:17:27.643Z,79.35
2022-12-03T04:18:44.646Z,79.66
2022-12-03T04:19:46.537Z,79.77
2022-12-03T04:20:48.365Z,79.35
2022-12-03T04:22:08.765Z,79.34
2022-12-03T04:23:10.693Z,79.64
2022-12-03T04:24:12.656Z,79.23
2022-12-03T04:25:32.900Z,79.55
2022-12-03T04:26:53.685Z,80.22
2022-12-03T04:28:14.339Z,79.42
2022-12-03T04:29:16.269Z,79.96
2022-12-03T04:30:18.155Z,79.98
2022-12-03T04:31:38.591Z,80.33
2022-12-03T04:32:58.667Z,80.04
2022-12-03T04:34:19.679Z,80.28
2022-12-03T04:35:39.738Z,80.57
2022-12-03T04:36:41.587Z,81.14
2022-12-03T04:37:43.379Z,81.15
2022-12-03T04:38:45.230Z,81.01
2022-12-03T04:39:47.134Z,80.88
2022-12-03T04:41:01.186Z,80.77
2022-12-03T04:42:03.871Z,80.20
2022-12-03T04:43:06.244Z,80.81
2022-12-03T04:45:20.699Z,79.98
2022-12-03T04:46:22.718Z,79.49
2022-12-03T04:47:24.628Z,79.99
2022-12-03T04:48:26.499Z,79.52
2022-12-03T04:49:28.377Z,80.08
2022-12-03T04:50:30.725Z,79.82
2022-12-03T04:51:32.514Z,79.70
2022-12-03T04:52:34.513Z,80.49
2022-12-03T04:53:36.487Z,79.79
2022-12-03T04:54:39.267Z,79.93
2022-12-03T04:55:41.662Z,80.56
2022-12-03T04:56:43.653Z,80.37
2022-12-03T04:57:45.551Z,80.42
2022-12-03T04:58:47.409Z,80.83
2022-12-03T04:59:49.289Z,80.81
2022-12-03T05:00:52.580Z,80.49
2022-12-03T05:01:54.549Z,80.86
2022-12-03T05:02:57.662Z,80.97
2022-12-03T05:03:59.721Z,80.67
2022-12-03T05:05:01.603Z,81.40
2022-12-03T05:06:03.460Z,81.77
2022-12-03T05:07:05.391Z,81.67
2022-12-03T05:08:07.325Z,80.92
2022-12-03T05:09:09.214Z,81.06
2022-12-03T05:10:11.736Z,81.64
2022-12-03T05:11:13.787Z,81.56
2022-12-03T05:12:15.574Z,81.23
2022-12-03T05:13:17.453Z,81.28
2022-12-03T05:14:19.332Z,80.50
2022-12-03T05:15:21.216Z,80.49
2022-12-03T05:16:23.749Z,80.45
2022-12-03T05:17:25.661Z,80.86
2022-12-03T05:18:27.511Z,80.46
2022-12-03T05:19:48.041Z,81.17
2022-12-03T05:20:53.446Z,80.53
2022-12-03T05:21:55.631Z,81.19
2022-12-03T05:22:57.646Z,80.69
2022-12-03T05:23:59.459Z,80.77
2022-12-03T05:25:01.412Z,81.31
2022-12-03T05:26:03.297Z,81.27
2022-12-03T05:27:05.166Z,80.72
2022-12-03T05:28:07.657Z,81.22
2022-12-03T05:29:09.539Z,80.68
2022-12-03T05:30:11.563Z,81.36
2022-12-03T05:31:13.500Z,81.02
2022-12-03T05:32:15.618Z,80.84
2022-12-03T05:33:17.634Z,80.57
2022-12-03T05:34:19.512Z,80.82
2022-12-03T05:35:21.339Z,80.72
2022-12-03T05:36:23.288Z,80.56
2022-12-03T05:37:26.720Z,80.89
2022-12-03T05:38:28.576Z,80.85
2022-12-03T05:39:30.381Z,80.97
2022-12-03T05:40:32.275Z,80.25
2022-12-03T05:41:52.742Z,80.82
2022-12-03T05:42:54.584Z,81.39
2022-12-03T05:43:56.552Z,81.29
2022-12-03T05:44:58.401Z,81.12
2022-12-03T05:46:00.316Z,80.49
2022-12-03T05:47:02.214Z,80.32
2022-12-03T05:48:05.112Z,80.51
2022-12-03T05:49:07.009Z,80.87
2022-12-03T05:50:08.951Z,80.65
2022-12-03T05:51:10.756Z,80.72
2022-12-03T05:52:12.531Z,80.60
2022-12-03T05:53:15.145Z,80.81
2022-12-03T05:54:17.792Z,80.94
2022-12-03T05:55:20.487Z,81.23
2022-12-03T05:56:22.317Z,80.39
2022-12-03T05:57:24.145Z,80.94
2022-12-03T05:58:25.980Z,80.56
2022-12-03T05:59:28.759Z,80.40
2022-12-03T06:00:32.011Z,81.23
2022-12-03T06:01:34.711Z,80.87
2022-12-03T06:02:36.755Z,80.75
2022-12-03T06:03:38.827Z,81.68
2022-12-03T06:04:41.023Z,80.95
2022-12-03T06:05:42.874Z,81.69
2022-12-03T06:06:44.774Z,81.96
2022-12-03T06:07:47.153Z,81.96
2022-12-03T06:08:49.068Z,81.04
2022-12-03T06:09:50.921Z,80.82
2022-12-03T06:10:52.786Z,81.07
2022-12-03T06:11:54.642Z,80.98
2022-12-03T06:12:56.551Z,81.53
2022-12-03T06:13:58.437Z,81.63
2022-12-03T06:15:00.360Z,81.40
2022-12-03T06:16:02.287Z,81.05
2022-12-03T06:17:05.309Z,81.30
2022-12-03T06:18:07.196Z,80.81
2022-12-03T06:19:09.018Z,81.26
2022-12-03T06:20:13.911Z,80.95
2022-12-03T06:21:15.760Z,81.29
2022-12-03T06:22:17.648Z,81.31
2022-12-03T06:23:19.529Z,81.30
2022-12-03T06:24:21.365Z,81.03
2022-12-03T06:25:23.335Z,81.51
2022-12-03T06:26:25.180Z,81.86
2022-12-03T06:27:27.045Z,81.41
2022-12-03T06:28:28.878Z,81.31
2022-12-03T06:29:30.795Z,81.01
2022-12-03T06:30:34.520Z,81.43
2022-12-03T06:31:36.428Z,80.81
2022-12-03T06:32:38.426Z,80.94
2022-12-03T06:33:40.271Z,81.53
2022-12-03T06:34:42.016Z,81.35
2022-12-03T06:35:43.890Z,81.41
2022-12-03T06:36:47.107Z,81.36
2022-12-03T06:37:48.977Z,81.35
2022-12-03T06:38:50.840Z,81.64
2022-12-03T06:39:52.785Z,81.94
2022-12-03T06:40:54.723Z,81.39
2022-12-03T06:41:56.553Z,81.42
2022-12-03T06:42:58.382Z,82.18
2022-12-03T06:44:00.696Z,81.64
2022-12-03T06:45:04.018Z,81.68
2022-12-03T06:46:06.310Z,81.64
2022-12-03T06:47:08.214Z,81.89
2022-12-03T06:48:10.098Z,81.49
2022-12-03T06:49:11.937Z,81.98
2022-12-03T06:50:14.440Z,81.84
2022-12-03T06:51:16.315Z,81.41
2022-12-03T06:52:18.830Z,81.84
2022-12-03T06:53:20.665Z,81.09
2022-12-03T06:54:22.552Z,81.45
2022-12-03T06:55:24.659Z,81.70
2022-12-03T06:56:31.163Z,81.84
2022-12-03T06:57:37.155Z,81.82
2022-12-03T06:58:38.907Z,81.73
2022-12-03T06:59:40.783Z,81.80
2022-12-03T07:00:42.662Z,81.84
2022-12-03T07:01:44.887Z,81.89
2022-12-03T07:02:46.869Z,81.23
2022-12-03T07:03:48.718Z,81.67
2022-12-03T07:04:50.559Z,81.74
2022-12-03T07:05:52.437Z,81.86
2022-12-03T07:06:55.874Z,82.43
2022-12-03T07:07:57.754Z,82.09
2022-12-03T07:08:59.646Z,82.09
2022-12-03T07:10:01.555Z,82.41
2022-12-03T07:11:03.474Z,82.32
2022-12-03T07:12:05.880Z,82.29
2022-12-03T07:13:07.777Z,82.20
2022-12-03T07:14:11.739Z,82.48
2022-12-03T07:15:13.791Z,82.29
2022-12-03T07:16:15.741Z,81.80
2022-12-03T07:17:17.786Z,82.25
2022-12-03T07:18:19.595Z,82.29
2022-12-03T07:19:21.447Z,82.40
2022-12-03T07:20:23.275Z,82.14
2022-12-03T07:21:25.130Z,82.20
2022-12-03T07:22:27.077Z,81.87
2022-12-03T07:23:28.984Z,82.47
2022-12-03T07:24:30.831Z,82.17
2022-12-03T07:25:32.703Z,82.52
2022-12-03T07:26:34.603Z,82.48
2022-12-03T07:27:36.512Z,82.37
2022-12-03T07:28:38.389Z,82.30
2022-12-03T07:29:40.608Z,82.19
2022-12-03T07:30:42.485Z,81.98
2022-12-03T07:31:44.400Z,82.72
2022-12-03T07:32:46.364Z,81.85
2022-12-03T07:33:48.282Z,82.76
2022-12-03T07:34:50.221Z,81.86
2022-12-03T07:35:52.210Z,82.28
2022-12-03T07:36:54.121Z,81.91
2022-12-03T07:37:56.071Z,82.37
2022-12-03T07:38:57.892Z,82.08
2022-12-03T07:39:59.819Z,81.95
2022-12-03T07:41:01.705Z,81.69
2022-12-03T07:42:03.732Z,81.56
2022-12-03T07:43:05.783Z,81.88
2022-12-03T07:44:12.525Z,82.00
2022-12-03T07:45:16.654Z,81.82
2022-12-03T07:46:35.619Z,82.25
2022-12-03T07:47:37.496Z,82.01
2022-12-03T07:48:39.432Z,82.12
2022-12-03T07:49:41.247Z,82.66
2022-12-03T07:50:43.255Z,82.69
2022-12-03T07:51:53.994Z,82.64
2022-12-03T07:52:56.052Z,82.56
2022-12-03T07:53:57.836Z,82.79
2022-12-03T07:54:59.632Z,82.27
2022-12-03T07:56:01.483Z,82.83
2022-12-03T07:57:03.365Z,82.98
2022-12-03T07:58:05.140Z,83.04
2022-12-03T07:59:06.954Z,82.65
2022-12-03T08:00:08.968Z,82.91
2022-12-03T08:01:10.921Z,83.29
2022-12-03T08:02:16.823Z,83.13
2022-12-03T08:03:23.000Z,82.61
2022-12-03T08:04:24.784Z,83.04
2022-12-03T08:05:27.381Z,82.76
2022-12-03T08:06:29.312Z,83.23
2022-12-03T08:07:31.972Z,82.52
2022-12-03T08:08:33.831Z,82.41
2022-12-03T08:09:35.678Z,82.72
2022-12-03T08:10:37.504Z,82.96
2022-12-03T08:11:39.327Z,82.58
2022-12-03T08:12:41.284Z,82.85
2022-12-03T08:13:43.307Z,82.53
2022-12-03T08:14:45.120Z,82.31
2022-12-03T08:15:46.995Z,82.16
2022-12-03T08:16:49.132Z,82.90
2022-12-03T08:17:56.248Z,82.12
2022-12-03T08:18:58.113Z,82.92
2022-12-03T08:20:00.006Z,82.75
2022-12-03T08:21:01.924Z,82.38
2022-12-03T08:22:10.784Z,82.22
2022-12-03T08:23:23.959Z,81.82
2022-12-03T08:24:25.748Z,82.54
2022-12-03T08:25:29.153Z,82.53
2022-12-03T08:26:31.093Z,82.24
2022-12-03T08:27:33.724Z,82.51
2022-12-03T08:28:36.120Z,82.41
2022-12-03T08:29:37.968Z,82.12
2022-12-03T08:30:40.416Z,82.64
2022-12-03T08:31:42.683Z,82.15
2022-12-03T08:32:45.067Z,82.44
2022-12-03T08:33:51.869Z,81.87
2022-12-03T08:34:53.815Z,81.86
2022-12-03T08:35:56.073Z,82.04
2022-12-03T08:37:02.399Z,81.99
2022-12-03T08:38:11.905Z,81.85
2022-12-03T08:39:30.848Z,82.18
2022-12-03T08:40:37.196Z,82.44
2022-12-03T08:41:57.582Z,82.75
2022-12-03T08:42:59.456Z,82.67
2022-12-03T08:44:01.339Z,82.56
2022-12-03T08:45:18.437Z,82.55
2022-12-03T08:46:20.516Z,82.36
2022-12-03T08:47:23.360Z,82.75
2022-12-03T08:48:29.828Z,82.53
2022-12-03T08:49:31.883Z,82.72
2022-12-03T08:50:42.014Z,82.35
2022-12-03T08:51:44.674Z,82.40
2022-12-03T08:52:46.556Z,81.66
2022-12-03T08:53:49.731Z,81.59
2022-12-03T08:54:55.914Z,81.71
2022-12-03T08:56:18.287Z,81.76
2022-12-03T08:57:20.036Z,82.31
2022-12-03T08:58:30.705Z,82.06
2022-12-03T08:59:32.607Z,81.64
2022-12-03T09:00:34.570Z,81.20
2022-12-03T09:01:43.108Z,81.85
2022-12-03T09:02:46.591Z,81.62
2022-12-03T09:03:55.066Z,81.86
2022-12-03T09:04:57.043Z,81.38
2022-12-03T09:05:58.987Z,81.46
2022-12-03T09:07:01.017Z,81.40
2022-12-03T09:08:02.980Z,81.63
2022-12-03T09:09:06.909Z,81.05
2022-12-03T09:10:09.117Z,81.21
2022-12-03T09:11:10.962Z,80.97
2022-12-03T09:12:12.920Z,81.10
2022-12-03T09:13:14.713Z,81.03
2022-12-03T09:14:18.836Z,80.82
2022-12-03T09:15:20.944Z,80.96
2022-12-03T09:16:23.031Z,80.63
2022-12-03T09:17:24.954Z,80.89
2022-12-03T09:18:26.807Z,81.00
2022-12-03T09:19:31.292Z,80.94
2022-12-03T09:20:33.198Z,81.10
2022-12-03T09:21:35.153Z,80.78
2022-12-03T09:22:37.144Z,80.78
2022-12-03T09:23:38.981Z,80.92
2022-12-03T09:24:40.872Z,81.13
2022-12-03T09:25:42.879Z,80.94
2022-12-03T09:26:44.763Z,81.06
2022-12-03T09:27:46.648Z,81.22
2022-12-03T09:28:48.561Z,81.12
2022-12-03T09:29:50.911Z,81.46
2022-12-03T09:30:52.878Z,81.62
2022-12-03T09:31:54.753Z,81.75
2022-12-03T09:32:56.747Z,81.15
2022-12-03T09:33:58.622Z,81.17
2022-12-03T09:35:00.448Z,81.64
2022-12-03T09:36:02.364Z,81.40
2022-12-03T09:37:04.269Z,81.62
2022-12-03T09:38:07.053Z,81.80
2022-12-03T09:39:09.009Z,81.96
2022-12-03T09:40:11.278Z,81.31
2022-12-03T09:41:13.271Z,81.31
2022-12-03T09:42:15.522Z,81.46
2022-12-03T09:43:18.251Z,81.18
2022-12-03T09:44:20.133Z,80.47
2022-12-03T09:45:23.506Z,80.41
2022-12-03T09:46:25.543Z,80.93
2022-12-03T09:47:27.518Z,80.56
2022-12-03T09:48:29.498Z,80.55
2022-12-03T09:49:32.319Z,80.88
2022-12-03T09:50:34.279Z,80.65
2022-12-03T09:51:36.630Z,80.44
2022-12-03T09:52:38.454Z,80.11
2022-12-03T09:53:41.468Z,80.79
2022-12-03T09:54:47.340Z,81.13
2022-12-03T09:55:49.803Z,81.52
2022-12-03T09:56:52.731Z,81.58
2022-12-03T09:57:55.251Z,81.44
2022-12-03T09:58:57.302Z,80.94
2022-12-03T09:59:59.310Z,81.13
2022-12-03T10:01:01.274Z,81.15
2022-12-03T10:02:05.192Z,80.83
2022-12-03T10:03:08.065Z,80.92
2022-12-03T10:04:10.152Z,80.78
2022-12-03T10:05:12.401Z,80.89
2022-12-03T10:06:16.539Z,80.80
2022-12-03T10:07:18.615Z,80.56
2022-12-03T10:08:22.403Z,80.99
2022-12-03T10:09:26.055Z,81.50
2022-12-03T10:10:27.925Z,81.16
2022-12-03T10:11:30.976Z,81.24
2022-12-03T10:12:32.866Z,81.06
2022-12-03T10:13:37.533Z,80.96
2022-12-03T10:14:39.685Z,80.66
2022-12-03T10:15:41.627Z,80.30
2022-12-03T10:16:44.228Z,80.85
2022-12-03T10:17:46.875Z,80.49
2022-12-03T10:18:53.540Z,80.77
2022-12-03T10:19:55.536Z,80.82
2022-12-03T10:20:58.189Z,81.07
2022-12-03T10:21:59.998Z,81.13
2022-12-03T10:23:01.853Z,81.34
2022-12-03T10:24:23.601Z,81.47
2022-12-03T10:25:25.424Z,81.40
2022-12-03T10:26:39.188Z,81.04
2022-12-03T10:27:41.632Z,81.19
2022-12-03T10:28:44.371Z,81.11
2022-12-03T10:29:54.211Z,80.75
2022-12-03T10:30:56.896Z,80.78
2022-12-03T10:32:00.143Z,80.78
2022-12-03T10:33:15.851Z,80.85
2022-12-03T10:34:46.746Z,80.38
2022-12-03T10:35:48.602Z,81.03
2022-12-03T10:37:08.716Z,80.91
2022-12-03T10:38:23.155Z,80.91
2022-12-03T10:39:25.023Z,81.01
2022-12-03T10:40:37.335Z,80.60
2022-12-03T10:41:40.127Z,80.62
2022-12-03T10:42:41.956Z,80.40
2022-12-03T10:43:43.835Z,80.97
2022-12-03T10:44:45.972Z,80.52
2022-12-03T10:45:48.963Z,80.65
2022-12-03T10:47:26.170Z,80.26
2022-12-03T10:48:28.116Z,80.42
2022-12-03T10:49:30.000Z,80.55
2022-12-03T10:50:32.263Z,80.50
2022-12-03T10:51:35.382Z,80.48
2022-12-03T10:52:37.311Z,80.40
2022-12-03T10:53:40.841Z,80.59
2022-12-03T10:54:42.758Z,80.97
2022-12-03T10:55:45.789Z,80.29
2022-12-03T10:56:48.645Z,80.31
2022-12-03T10:57:50.551Z,80.30
2022-12-03T10:58:52.891Z,80.69
2022-12-03T10:59:54.823Z,80.81
2022-12-03T11:00:57.753Z,80.15
2022-12-03T11:02:01.381Z,80.41
2022-12-03T11:03:03.370Z,80.60
2022-12-03T11:04:05.718Z,80.25
2022-12-03T11:05:07.968Z,79.79
2022-12-03T11:06:14.127Z,80.01
2022-12-03T11:07:17.911Z,79.67
2022-12-03T11:08:21.453Z,79.89
2022-12-03T11:09:29.850Z,80.11
2022-12-03T11:10:31.665Z,80.17
2022-12-03T11:11:33.617Z,80.23
2022-12-03T11:12:37.205Z,79.39
2022-12-03T11:13:39.024Z,79.59
2022-12-03T11:14:54.428Z,79.59
2022-12-03T11:15:57.042Z,80.28
2022-12-03T11:16:58.916Z,79.79
2022-12-03T11:18:01.002Z,79.61
2022-12-03T11:19:03.650Z,79.60
2022-12-03T11:20:06.415Z,79.92
2022-12-03T11:21:14.734Z,79.83
2022-12-03T11:22:17.846Z,80.44
2022-12-03T11:23:39.682Z,80.35
2022-12-03T11:24:41.502Z,79.98
2022-12-03T11:25:47.882Z,79.97
2022-12-03T11:26:52.772Z,79.97
2022-12-03T11:28:13.335Z,79.76
2022-12-03T11:29:15.366Z,79.99
2022-12-03T11:30:37.077Z,80.00
2022-12-03T11:31:48.676Z,80.06
2022-12-03T11:33:00.944Z,79.87
2022-12-03T11:34:21.195Z,79.94
2022-12-03T11:35:25.750Z,79.59
2022-12-03T11:36:47.760Z,79.45
2022-12-03T11:37:49.410Z,79.99
2022-12-03T11:38:53.925Z,79.96
2022-12-03T11:39:59.782Z,80.15
2022-12-03T11:41:12.059Z,79.85
2022-12-03T11:42:26.012Z,79.73
2022-12-03T11:43:51.097Z,80.25
2022-12-03T11:45:11.522Z,79.79
2022-12-03T11:46:13.540Z,80.33
2022-12-03T11:47:16.262Z,80.40
2022-12-03T11:48:18.996Z,80.01
2022-12-03T11:49:20.749Z,80.35
2022-12-03T11:50:24.355Z,80.75
2022-12-03T11:51:27.694Z,80.29
2022-12-03T11:52:39.422Z,80.66
2022-12-03T11:53:41.622Z,80.30
2022-12-03T11:54:43.764Z,79.78
2022-12-03T11:55:48.960Z,79.67
2022-12-03T11:56:50.924Z,79.78
2022-12-03T11:57:57.606Z,80.00
2022-12-03T11:59:02.986Z,79.96
2022-12-03T12:00:17.485Z,80.03
2022-12-03T12:01:35.469Z,80.09
2022-12-03T12:02:40.685Z,80.60
2022-12-03T12:03:44.720Z,80.29
2022-12-03T12:04:49.643Z,80.49
2022-12-03T12:06:00.640Z,80.27
2022-12-03T12:07:02.699Z,80.42
2022-12-03T12:08:04.732Z,80.01
2022-12-03T12:09:06.649Z,80.51
2022-12-03T12:10:08.579Z,80.12
2022-12-03T12:11:36.792Z,80.19
2022-12-03T12:12:39.528Z,80.19
2022-12-03T12:13:41.412Z,80.03
2022-12-03T12:14:44.344Z,80.34
2022-12-03T12:15:46.221Z,80.43
2022-12-03T12:16:52.378Z,80.61
2022-12-03T12:17:54.218Z,79.77
2022-12-03T12:18:56.412Z,79.98
2022-12-03T12:20:14.333Z,79.70
2022-12-03T12:21:34.942Z,79.84
2022-12-03T12:22:36.754Z,79.97
2022-12-03T12:23:38.626Z,80.13
2022-12-03T12:24:41.087Z,79.74
2022-12-03T12:25:43.007Z,79.59
2022-12-03T12:26:50.571Z,80.04
2022-12-03T12:27:54.120Z,80.08
2022-12-03T12:28:56.058Z,80.24
2022-12-03T12:29:59.589Z,80.61
2022-12-03T12:31:01.563Z,80.33
2022-12-03T12:32:09.472Z,80.52
2022-12-03T12:33:14.420Z,80.66
2022-12-03T12:34:16.397Z,80.51
2022-12-03T12:35:22.710Z,80.62
2022-12-03T12:36:24.687Z,80.54
2022-12-03T12:37:32.093Z,80.04
2022-12-03T12:38:34.028Z,80.32
2022-12-03T12:39:36.358Z,80.03
2022-12-03T12:40:39.850Z,79.76
2022-12-03T12:41:42.361Z,79.70
2022-12-03T12:42:52.678Z,80.09
2022-12-03T12:43:54.582Z,80.16
2022-12-03T12:45:00.206Z,80.25
2022-12-03T12:46:31.481Z,80.30
2022-12-03T12:47:32.417Z,80.13
2022-12-03T12:48:35.184Z,80.50
2022-12-03T12:49:37.082Z,80.15
2022-12-03T12:50:39.362Z,80.07
2022-12-03T12:51:44.902Z,80.56
2022-12-03T12:52:49.330Z,80.64
2022-12-03T12:53:51.364Z,80.10
2022-12-03T12:54:53.266Z,80.34
2022-12-03T12:56:18.313Z,79.91
2022-12-03T12:57:24.640Z,80.30
2022-12-03T12:58:29.380Z,80.46
2022-12-03T12:59:31.216Z,79.79
2022-12-03T13:00:33.080Z,80.56
2022-12-03T13:01:36.419Z,80.49
2022-12-03T13:02:44.686Z,80.12
2022-12-03T13:03:49.915Z,80.70
2022-12-03T13:04:51.933Z,80.84
2022-12-03T13:05:54.454Z,80.54
2022-12-03T13:06:56.397Z,80.25
2022-12-03T13:07:58.292Z,80.43
2022-12-03T13:09:03.259Z,79.67
2022-12-03T13:10:34.245Z,80.28
2022-12-03T13:11:37.337Z,80.49
2022-12-03T13:12:39.334Z,80.13
2022-12-03T13:13:44.302Z,79.91
2022-12-03T13:14:47.385Z,79.78
2022-12-03T13:15:51.101Z,79.96
2022-12-03T13:16:55.112Z,80.44
2022-12-03T13:17:57.230Z,79.75
2022-12-03T13:18:59.967Z,79.88
2022-12-03T13:20:07.425Z,79.97
2022-12-03T13:21:23.748Z,79.94
2022-12-03T13:22:25.946Z,80.06
2022-12-03T13:23:30.443Z,80.18
2022-12-03T13:24:35.163Z,79.95
2022-12-03T13:26:00.314Z,80.28
2022-12-03T13:27:00.814Z,79.98
2022-12-03T13:28:02.639Z,79.82
2022-12-03T13:29:24.996Z,80.68
2022-12-03T13:30:29.191Z,80.57
2022-12-03T13:31:34.160Z,80.15
2022-12-03T13:32:39.595Z,80.55
2022-12-03T13:33:42.458Z,80.16
2022-12-03T13:34:45.464Z,80.35
2022-12-03T13:35:47.352Z,80.71
2022-12-03T13:36:56.957Z,80.74
2022-12-03T13:37:59.734Z,80.26
2022-12-03T13:39:02.475Z,80.44
2022-12-03T13:40:19.728Z,80.31
2022-12-03T13:41:39.902Z,80.74
2022-12-03T13:42:46.844Z,80.52
2022-12-03T13:43:48.669Z,80.62
2022-12-03T13:44:50.585Z,80.30
2022-12-03T13:45:54.650Z,80.66